createdAt,value
2022-12-19T00:01:06.146Z,3.1
2022-12-19T00:02:03.720Z,3.2
2022-12-19T00:03:04.303Z,3.2
2022-12-19T00:04:08.372Z,3.2
2022-12-19T00:05:07.401Z,3.7
2022-12-19T00:06:07.512Z,3.3
2022-12-19T00:07:07.412Z,3
2022-12-19T00:08:17.574Z,2.9
2022-12-19T00:09:11.091Z,3.3
2022-12-19T00:10:11.010Z,3.3
2022-12-19T00:11:12.752Z,3.3
2022-12-19T00:12:17.411Z,3.3
2022-12-19T00:13:16.461Z,3.1
2022-12-19T00:14:17.184Z,3.3
2022-12-19T00:15:17.495Z,3.2
2022-12-19T00:16:21.051Z,3
2022-12-19T00:17:18.836Z,3.2
2022-12-19T00:18:19.263Z,3.2
2022-12-19T00:19:19.363Z,3.2
2022-12-19T00:20:19.801Z,3
2022-12-19T00:21:22.854Z,3.4
2022-12-19T00:22:20.420Z,3.3
2022-12-19T00:23:20.831Z,3.2
2022-12-19T00:24:21.889Z,3.5
2022-12-19T00:25:21.660Z,4.2
2022-12-19T00:26:32.774Z,3.6
2022-12-19T00:27:25.071Z,3.4
2022-12-19T00:28:25.462Z,3.3
2022-12-19T00:29:25.893Z,3.7
2022-12-19T00:30:26.091Z,3.3
2022-12-19T00:31:28.938Z,3.5
2022-12-19T00:32:26.832Z,3.7
2022-12-19T00:33:27.241Z,3.3
2022-12-19T00:34:27.661Z,3.2
2022-12-19T00:35:27.971Z,3.2
2022-12-19T00:36:32.382Z,3.3
2022-12-19T00:37:29.831Z,3.7
2022-12-19T00:38:30.973Z,3.7
2022-12-19T00:39:30.663Z,3.2
2022-12-19T00:40:31.069Z,3.3
2022-12-19T00:41:33.541Z,3.7
2022-12-19T00:42:31.804Z,3.4
2022-12-19T00:43:32.248Z,3.3
2022-12-19T00:44:32.737Z,3.6
2022-12-19T00:45:32.998Z,3.4
2022-12-19T00:46:34.670Z,3.5
2022-12-19T00:47:33.678Z,3.7
2022-12-19T00:48:34.722Z,3.3
2022-12-19T00:49:34.317Z,3.3
2022-12-19T00:50:34.932Z,3.2
2022-12-19T00:51:36.747Z,3.4
2022-12-19T00:52:35.366Z,3.2
2022-12-19T00:53:35.673Z,3.4
2022-12-19T00:54:36.056Z,3.4
2022-12-19T00:55:38.867Z,3.6
2022-12-19T00:56:38.324Z,3.4
2022-12-19T00:57:37.145Z,3.3
2022-12-19T00:58:39.921Z,3.6
2022-12-19T00:59:40.168Z,3.4
2022-12-19T01:00:39.944Z,3.6
2022-12-19T01:01:41.980Z,3.2
2022-12-19T01:02:40.915Z,3.2
2022-12-19T01:03:52.924Z,3.2
2022-12-19T01:04:44.044Z,3.3
2022-12-19T01:05:44.345Z,3.2
2022-12-19T01:06:44.772Z,2.9
2022-12-19T01:07:45.182Z,3.3
2022-12-19T01:08:45.797Z,3.4
2022-12-19T01:09:45.713Z,3.1
2022-12-19T01:10:46.940Z,3.6
2022-12-19T01:11:46.442Z,3.1
2022-12-19T01:12:46.863Z,3
2022-12-19T01:13:47.274Z,3.3
2022-12-19T01:14:47.678Z,3.3
2022-12-19T01:15:47.902Z,3.4
2022-12-19T01:16:48.285Z,3.2
2022-12-19T01:17:49.446Z,3.3
2022-12-19T01:18:48.862Z,3.5
2022-12-19T01:19:49.145Z,2.8
2022-12-19T01:20:49.587Z,3.2
2022-12-19T01:21:49.790Z,3.2
2022-12-19T01:22:50.192Z,3.4
2022-12-19T01:23:50.607Z,3.4
2022-12-19T01:24:50.931Z,3.2
2022-12-19T01:25:54.420Z,3.6
2022-12-19T01:26:51.861Z,3.1
2022-12-19T01:27:54.945Z,3.1
2022-12-19T01:28:52.585Z,3.2
2022-12-19T01:29:53.215Z,3.4
2022-12-19T01:30:52.913Z,3.5
2022-12-19T01:31:53.499Z,3.3
2022-12-19T01:32:53.641Z,3.4
2022-12-19T01:33:54.544Z,3.5
2022-12-19T01:34:54.373Z,3.1
2022-12-19T01:35:54.683Z,3.1
2022-12-19T01:36:55.092Z,3.6
2022-12-19T01:37:58.065Z,12.8
2022-12-19T01:38:57.360Z,5
2022-12-19T01:39:56.043Z,3.4
2022-12-19T01:40:57.680Z,3.2
2022-12-19T01:41:58.098Z,3.1
2022-12-19T01:42:57.171Z,3.3
2022-12-19T01:44:05.766Z,3.2
2022-12-19T01:46:02.715Z,3.2
2022-12-19T01:47:01.264Z,3.8
2022-12-19T01:52:19.500Z,2.8
2022-12-19T01:53:16.914Z,3.4
2022-12-19T01:54:25.525Z,3.6
2022-12-19T01:55:18.871Z,3.1
2022-12-19T01:56:22.848Z,3.2
2022-12-19T01:57:20.503Z,3.1
2022-12-19T01:58:20.710Z,3.1
2022-12-19T01:59:27.777Z,3.2
2022-12-19T02:00:25.094Z,2.9
2022-12-19T02:01:25.827Z,2.9
2022-12-19T02:02:31.624Z,3.4
2022-12-19T02:03:32.311Z,3.2
2022-12-19T02:04:32.377Z,3.6
2022-12-19T02:05:31.596Z,3.4
2022-12-19T02:06:32.852Z,3.3
2022-12-19T02:07:32.953Z,3.1
2022-12-19T02:08:31.844Z,3.2
2022-12-19T02:09:32.049Z,3.1
2022-12-19T02:10:31.756Z,2.7
2022-12-19T02:11:32.056Z,3
2022-12-19T02:12:36.771Z,3
2022-12-19T02:13:34.731Z,3
2022-12-19T02:14:35.552Z,2.9
2022-12-19T02:30:14.286Z,2.7
2022-12-19T02:43:45.077Z,2.7
2022-12-19T02:45:49.573Z,2.7
2022-12-19T02:46:49.407Z,2.8
2022-12-19T02:47:48.891Z,2.4
2022-12-19T02:48:49.524Z,2.7
2022-12-19T02:49:49.428Z,2.7
2022-12-19T02:50:50.185Z,2.7
2022-12-19T02:51:50.070Z,2.7
2022-12-19T02:52:50.047Z,2.7
2022-12-19T02:53:50.889Z,3
2022-12-19T02:54:53.413Z,2.6
2022-12-19T03:11:35.997Z,2.6
2022-12-19T03:12:40.676Z,2.6
2022-12-19T03:13:42.733Z,2.3
2022-12-19T03:14:41.313Z,2.5
2022-12-19T03:15:41.718Z,2.7
2022-12-19T03:16:41.975Z,2.7
2022-12-19T03:17:41.831Z,2.5
2022-12-19T03:18:42.866Z,2.5
2022-12-19T03:19:42.286Z,2.4
2022-12-19T03:21:49.956Z,2.7
2022-12-19T03:22:48.128Z,2.5
2022-12-19T03:23:50.524Z,2.9
2022-12-19T03:24:48.546Z,2.8
2022-12-19T03:25:56.198Z,2.6
2022-12-19T03:31:05.160Z,2.3
2022-12-19T03:32:05.589Z,2.4
2022-12-19T03:33:03.855Z,2.5
2022-12-19T03:36:14.010Z,2.3
2022-12-19T03:37:17.020Z,2.4
2022-12-19T03:38:18.319Z,2.4
2022-12-19T03:39:17.716Z,2.5
2022-12-19T03:40:20.084Z,2.5
2022-12-19T03:41:21.474Z,2.3
2022-12-19T03:42:20.668Z,2.6
2022-12-19T03:43:23.186Z,2.5
2022-12-19T03:44:22.764Z,2.2
2022-12-19T03:46:27.826Z,2.4
2022-12-19T03:47:31.565Z,2.1
2022-12-19T03:49:32.834Z,2.3
2022-12-19T03:58:56.663Z,2.6
2022-12-19T03:59:55.106Z,2.3
2022-12-19T04:00:54.316Z,2.4
2022-12-19T04:01:54.499Z,2.3
2022-12-19T04:02:56.302Z,2.2
2022-12-19T04:03:55.593Z,2.6
2022-12-19T04:04:59.369Z,2.2
2022-12-19T04:05:59.465Z,2
2022-12-19T04:06:58.831Z,2
2022-12-19T04:08:02.864Z,2.1
2022-12-19T04:09:01.331Z,2.4
2022-12-19T04:10:05.637Z,2.1
2022-12-19T04:11:09.816Z,2.3
2022-12-19T04:12:13.756Z,2.3
2022-12-19T04:13:17.127Z,2.1
2022-12-19T04:15:20.328Z,2.2
2022-12-19T04:18:22.664Z,2
2022-12-19T04:20:26.290Z,2.1
2022-12-19T04:21:32.964Z,2.1
2022-12-19T04:23:36.348Z,2.3
2022-12-19T04:24:36.366Z,2.4
2022-12-19T04:26:39.246Z,2.1
2022-12-19T04:27:41.699Z,2.1
2022-12-19T04:28:43.920Z,2
2022-12-19T04:29:42.427Z,2.1
2022-12-19T04:30:43.089Z,2.4
2022-12-19T04:31:42.905Z,2.2
2022-12-19T04:32:46.025Z,2.3
2022-12-19T04:33:43.593Z,2.1
2022-12-19T04:34:43.603Z,2
2022-12-19T04:35:44.216Z,2.4
2022-12-19T04:36:44.417Z,2.1
2022-12-19T04:37:44.742Z,2.3
2022-12-19T04:38:45.053Z,2.2
2022-12-19T04:39:45.355Z,2.2
2022-12-19T04:40:45.538Z,2.3
2022-12-19T04:41:45.980Z,2.2
2022-12-19T04:42:46.293Z,2.3
2022-12-19T04:43:46.715Z,2.1
2022-12-19T04:44:46.921Z,2.3
2022-12-19T04:45:47.373Z,2.3
2022-12-19T04:46:47.780Z,2.4
2022-12-19T04:47:47.880Z,2.5
2022-12-19T04:48:48.195Z,2.2
2022-12-19T04:49:48.496Z,2.3
2022-12-19T04:50:48.925Z,2.3
2022-12-19T04:51:49.337Z,2.2
2022-12-19T04:52:53.235Z,2.3
2022-12-19T04:53:53.027Z,2.4
2022-12-19T04:54:53.456Z,2.2
2022-12-19T04:56:54.696Z,2.3
2022-12-19T04:57:54.999Z,2.2
2022-12-19T04:58:58.803Z,2.4
2022-12-19T04:59:56.147Z,2.5
2022-12-19T05:01:01.465Z,2.3
2022-12-19T05:01:58.906Z,2.6
2022-12-19T05:02:59.795Z,2.3
2022-12-19T05:04:04.220Z,2.5
2022-12-19T05:05:02.126Z,2.4
2022-12-19T05:06:13.797Z,2.4
2022-12-19T05:07:06.436Z,2.3
2022-12-19T05:08:06.548Z,2.3
2022-12-19T05:09:06.841Z,2.3
2022-12-19T05:10:08.296Z,2.4
2022-12-19T05:11:13.386Z,2.3
2022-12-19T05:12:09.932Z,2.4
2022-12-19T05:13:10.255Z,2.1
2022-12-19T05:14:10.579Z,2.3
2022-12-19T05:15:11.285Z,2.3
2022-12-19T05:16:12.565Z,2.2
2022-12-19T05:17:11.716Z,2.8
2022-12-19T05:18:11.836Z,2.3
2022-12-19T05:19:12.263Z,2.2
2022-12-19T05:20:12.556Z,2.5
2022-12-19T05:21:13.095Z,2.2
2022-12-19T05:22:13.180Z,2.2
2022-12-19T05:23:17.411Z,2.6
2022-12-19T05:24:15.638Z,2.8
2022-12-19T05:25:15.979Z,3.3
2022-12-19T05:26:16.173Z,2.9
2022-12-19T05:27:16.349Z,2.6
2022-12-19T05:28:18.331Z,2.1
2022-12-19T05:29:17.632Z,2.3
2022-12-19T05:30:17.386Z,2.4
2022-12-19T05:31:20.453Z,2.4
2022-12-19T05:32:17.988Z,2.7
2022-12-19T05:33:18.280Z,3
2022-12-19T05:34:18.780Z,3.8
2022-12-19T05:35:19.094Z,3.7
2022-12-19T05:36:19.613Z,2.7
2022-12-19T05:37:19.724Z,2.6
2022-12-19T05:38:19.938Z,2.7
2022-12-19T05:39:20.304Z,2.4
2022-12-19T05:40:20.679Z,2.8
2022-12-19T05:41:21.697Z,2.5
2022-12-19T05:42:21.290Z,2.3
2022-12-19T05:43:22.138Z,2.4
2022-12-19T05:44:22.124Z,2.3
2022-12-19T05:45:22.744Z,2.5
2022-12-19T05:46:24.772Z,2.5
2022-12-19T05:47:22.964Z,2.5
2022-12-19T05:48:23.396Z,2.7
2022-12-19T05:49:23.694Z,2.6
2022-12-19T05:50:24.011Z,2.8
2022-12-19T05:51:24.176Z,2.7
2022-12-19T05:52:24.643Z,2.9
2022-12-19T05:53:26.173Z,2.6
2022-12-19T05:54:25.264Z,2.8
2022-12-19T05:55:25.699Z,2.6
2022-12-19T05:56:25.800Z,2.6
2022-12-19T05:57:26.201Z,3
2022-12-19T05:58:26.523Z,2.8
2022-12-19T05:59:27.032Z,2.8
2022-12-19T06:00:27.454Z,2.7
2022-12-19T06:01:28.209Z,2.8
2022-12-19T06:02:32.316Z,2.9
2022-12-19T06:03:29.900Z,2.7
2022-12-19T06:04:30.547Z,2.9
2022-12-19T06:05:31.072Z,2.8
2022-12-19T06:06:30.875Z,2.6
2022-12-19T06:07:31.194Z,2.9
2022-12-19T06:08:32.110Z,2.9
2022-12-19T06:09:31.715Z,2.8
2022-12-19T06:10:32.333Z,2.9
2022-12-19T06:11:32.444Z,2.8
2022-12-19T06:12:32.862Z,2.7
2022-12-19T06:13:34.195Z,2.8
2022-12-19T06:14:33.586Z,3
2022-12-19T06:15:33.886Z,2.7
2022-12-19T06:16:34.162Z,3
2022-12-19T06:17:34.625Z,3
2022-12-19T06:18:35.045Z,3.1
2022-12-19T06:19:35.258Z,3.1
2022-12-19T06:20:35.474Z,3.1
2022-12-19T06:21:39.723Z,2.8
2022-12-19T06:22:38.245Z,2.7
2022-12-19T06:23:39.060Z,2.7
2022-12-19T06:24:38.560Z,2.9
2022-12-19T06:25:39.093Z,3
2022-12-19T06:26:39.396Z,3.1
2022-12-19T06:27:39.834Z,2.7
2022-12-19T06:28:40.035Z,3.2
2022-12-19T06:29:40.245Z,3.1
2022-12-19T06:30:40.767Z,3.1
2022-12-19T06:31:41.101Z,5.6
2022-12-19T06:32:41.276Z,3.4
2022-12-19T06:33:41.682Z,3.2
2022-12-19T06:35:44.691Z,3.3
2022-12-19T06:36:44.906Z,3.5
2022-12-19T06:37:45.213Z,3.3
2022-12-19T06:38:45.530Z,3.5
2022-12-19T06:39:45.930Z,3.4
2022-12-19T06:40:46.152Z,3.1
2022-12-19T06:41:46.575Z,3.3
2022-12-19T06:42:47.912Z,3.4
2022-12-19T06:43:51.872Z,4
2022-12-19T06:44:52.639Z,3.6
2022-12-19T06:45:51.127Z,3.8
2022-12-19T06:46:52.889Z,3.8
2022-12-19T06:47:51.830Z,3.7
2022-12-19T06:48:52.436Z,3.5
2022-12-19T06:49:52.616Z,3.5
2022-12-19T06:50:52.757Z,4.3
2022-12-19T06:51:53.276Z,3.9
2022-12-19T06:52:54.393Z,4
2022-12-19T06:53:53.799Z,3.6
2022-12-19T06:54:54.227Z,3.9
2022-12-19T06:55:58.427Z,3.9
2022-12-19T06:56:55.771Z,3.8
2022-12-19T06:57:55.988Z,4.6
2022-12-19T06:58:56.399Z,4
2022-12-19T06:59:57.949Z,3.9
2022-12-19T07:00:57.136Z,3.7
2022-12-19T07:02:59.566Z,4.1
2022-12-19T07:03:58.885Z,4.1
2022-12-19T07:06:00.275Z,4.2
2022-12-19T07:07:00.955Z,4.3
2022-12-19T07:08:01.163Z,4.1
2022-12-19T07:09:01.261Z,4.1
2022-12-19T07:10:01.601Z,3.9
2022-12-19T07:11:02.122Z,4.3
2022-12-19T07:12:02.648Z,4.4
2022-12-19T07:13:03.158Z,3.9
2022-12-19T07:14:02.828Z,4.2
2022-12-19T07:15:03.675Z,4
2022-12-19T07:16:05.377Z,4
2022-12-19T07:17:04.627Z,3.9
2022-12-19T07:18:07.296Z,4.4
2022-12-19T07:19:05.439Z,4.5
2022-12-19T07:20:05.854Z,4
2022-12-19T07:21:06.786Z,4.6
2022-12-19T07:22:06.707Z,4.8
2022-12-19T07:23:07.717Z,4.5
2022-12-19T07:24:07.728Z,4.5
2022-12-19T07:25:07.694Z,4.4
2022-12-19T07:26:07.328Z,5
2022-12-19T07:27:07.555Z,4.5
2022-12-19T07:28:08.871Z,4.7
2022-12-19T07:29:09.093Z,4.6
2022-12-19T07:30:09.513Z,4.3
2022-12-19T07:31:08.549Z,4.7
2022-12-19T07:32:09.005Z,4.9
2022-12-19T07:33:11.238Z,4.4
2022-12-19T07:34:09.624Z,4.5
2022-12-19T07:35:10.267Z,4.7
2022-12-19T07:36:10.256Z,5.2
2022-12-19T07:37:10.995Z,5.1
2022-12-19T07:38:11.022Z,5
2022-12-19T07:39:11.713Z,4.4
2022-12-19T07:40:12.455Z,5
2022-12-19T07:41:12.047Z,5
2022-12-19T07:42:12.247Z,5.2
2022-12-19T07:43:12.660Z,5.1
2022-12-19T07:44:12.979Z,5.4
2022-12-19T07:45:13.388Z,4.9
2022-12-19T07:46:13.801Z,5
2022-12-19T07:47:13.827Z,4.7
2022-12-19T07:48:14.226Z,5.4
2022-12-19T07:49:19.576Z,5.3
2022-12-19T07:50:19.736Z,5.1
2022-12-19T07:51:20.081Z,5.1
2022-12-19T07:52:20.290Z,5.6
2022-12-19T07:53:20.615Z,4.9
2022-12-19T07:54:21.124Z,5
2022-12-19T07:55:21.392Z,5.1
2022-12-19T07:56:21.960Z,5.5
2022-12-19T07:57:22.175Z,4.8
2022-12-19T07:58:22.604Z,5.4
2022-12-19T07:59:28.904Z,5.1
2022-12-19T08:00:23.260Z,5.2
2022-12-19T08:01:23.314Z,5.5
2022-12-19T08:02:26.266Z,5.1
2022-12-19T08:03:25.117Z,6.1
2022-12-19T08:04:24.465Z,5.2
2022-12-19T08:05:24.665Z,5.7
2022-12-19T08:06:25.097Z,5.6
2022-12-19T08:07:25.184Z,5.7
2022-12-19T08:08:25.727Z,5.6
2022-12-19T08:09:26.037Z,5.3
2022-12-19T08:10:26.555Z,5.3
2022-12-19T08:11:26.872Z,6.1
2022-12-19T08:12:27.307Z,5.9
2022-12-19T08:13:29.068Z,5.7
2022-12-19T08:14:29.651Z,5.7
2022-12-19T08:15:29.967Z,5.4
2022-12-19T08:16:31.304Z,5.6
2022-12-19T08:17:30.623Z,5.7
2022-12-19T08:18:31.011Z,5.9
2022-12-19T08:19:31.227Z,5.7
2022-12-19T08:20:31.536Z,5.8
2022-12-19T08:21:32.154Z,5.8
2022-12-19T08:22:32.587Z,6.1
2022-12-19T08:23:33.193Z,5.7
2022-12-19T08:24:33.006Z,5.6
2022-12-19T08:25:33.224Z,6.1
2022-12-19T08:26:39.462Z,6
2022-12-19T08:27:34.266Z,6.1
2022-12-19T08:28:35.491Z,6.3
2022-12-19T08:29:34.975Z,5.8
2022-12-19T08:30:35.265Z,5.9
2022-12-19T08:31:35.630Z,6
2022-12-19T08:32:35.827Z,5.8
2022-12-19T08:33:37.051Z,6
2022-12-19T08:34:36.523Z,5.8
2022-12-19T08:35:36.969Z,5.6
2022-12-19T08:36:37.197Z,5.8
2022-12-19T08:37:37.687Z,6.1
2022-12-19T08:38:38.729Z,5.9
2022-12-19T08:39:39.547Z,5.9
2022-12-19T08:40:42.843Z,6.1
2022-12-19T08:41:43.248Z,5.8
2022-12-19T08:42:43.564Z,5.8
2022-12-19T08:43:49.301Z,6.4
2022-12-19T08:44:46.443Z,5.9
2022-12-19T08:45:49.816Z,6
2022-12-19T08:46:50.301Z,5.9
2022-12-19T08:47:48.112Z,5.4
2022-12-19T08:48:48.332Z,5.5
2022-12-19T08:49:48.945Z,6.3
2022-12-19T08:50:53.666Z,5.9
2022-12-19T08:51:51.114Z,5.6
2022-12-19T08:52:51.301Z,5.7
2022-12-19T08:53:51.625Z,6
2022-12-19T08:54:52.012Z,6.1
2022-12-19T08:56:00.118Z,6.4
2022-12-19T08:56:57.779Z,5.7
2022-12-19T08:57:57.789Z,5.9
2022-12-19T08:58:57.957Z,5.6
2022-12-19T08:59:58.525Z,6
2022-12-19T09:01:05.837Z,6.3
2022-12-19T09:02:03.501Z,6.6
2022-12-19T09:03:04.346Z,8.1
2022-12-19T09:05:36.897Z,6.7
2022-12-19T09:05:58.069Z,6
2022-12-19T09:06:18.669Z,6.1
2022-12-19T09:07:11.773Z,6.2
2022-12-19T09:08:13.137Z,6
2022-12-19T09:09:13.431Z,6.2
2022-12-19T09:10:14.301Z,5.9
2022-12-19T09:11:16.839Z,6.2
2022-12-19T09:12:15.808Z,6.3
2022-12-19T09:13:14.665Z,5.9
2022-12-19T09:14:16.369Z,6.2
2022-12-19T09:15:18.432Z,6.5
2022-12-19T09:16:23.605Z,5.8
2022-12-19T09:17:21.107Z,6.1
2022-12-19T09:18:21.379Z,6.1
2022-12-19T09:19:21.687Z,6
2022-12-19T09:20:23.667Z,6.3
2022-12-19T09:21:24.169Z,5.8
2022-12-19T09:22:27.669Z,6.3
2022-12-19T09:23:28.391Z,6
2022-12-19T09:24:27.487Z,6.2
2022-12-19T09:25:27.556Z,6.4
2022-12-19T09:26:27.979Z,6.1
2022-12-19T09:27:30.449Z,6.4
2022-12-19T09:28:30.663Z,6.2
2022-12-19T09:29:35.323Z,6.4
2022-12-19T09:30:33.169Z,6.7
2022-12-19T09:31:33.767Z,6.3
2022-12-19T09:32:34.068Z,6.1
2022-12-19T09:33:42.948Z,6.6
2022-12-19T09:34:37.547Z,6.5
2022-12-19T09:35:36.246Z,6.3
2022-12-19T09:36:36.439Z,6.6
2022-12-19T09:37:36.828Z,6.3
2022-12-19T09:38:37.967Z,7.1
2022-12-19T09:39:37.609Z,6.4
2022-12-19T09:47:03.349Z,6.8
2022-12-19T09:48:02.603Z,6.5
2022-12-19T09:49:02.546Z,6.5
2022-12-19T09:50:02.601Z,6.6
2022-12-19T09:51:12.405Z,6.9
2022-12-19T09:56:21.634Z,6.3
2022-12-19T10:00:41.911Z,6.8
2022-12-19T10:01:43.474Z,6.8
2022-12-19T10:07:13.959Z,6.7
2022-12-19T10:08:07.820Z,6.7
2022-12-19T10:09:49.016Z,6.8
2022-12-19T10:12:31.479Z,6.9
2022-12-19T10:19:20.648Z,6.8
2022-12-19T10:34:53.855Z,6.3
2022-12-19T10:44:14.312Z,7
2022-12-19T10:47:21.048Z,7.3
2022-12-19T10:48:30.783Z,7.2
2022-12-19T10:49:26.639Z,7.5
2022-12-19T10:50:27.939Z,7.6
2022-12-19T10:51:29.786Z,6.8
2022-12-19T10:53:32.039Z,7.5
2022-12-19T10:56:38.267Z,6.7
2022-12-19T10:57:38.268Z,7.5
2022-12-19T11:01:43.462Z,7.4
2022-12-19T11:02:50.922Z,7.9
2022-12-19T11:04:48.051Z,7.7
2022-12-19T11:10:38.175Z,8
2022-12-19T11:15:53.901Z,7.5
2022-12-19T11:19:28.614Z,7.9
2022-12-19T11:23:00.680Z,7.5
2022-12-19T11:24:16.294Z,8
2022-12-19T11:26:20.782Z,8
2022-12-19T11:29:40.717Z,9.1
2022-12-19T11:29:41.965Z,8.6
2022-12-19T11:29:42.411Z,7.3
2022-12-19T11:30:36.288Z,9.1
2022-12-19T11:30:36.953Z,7.9
2022-12-19T11:30:43.368Z,9
2022-12-19T11:30:43.936Z,8.5
2022-12-19T11:30:46.253Z,9.6
2022-12-19T11:32:39.026Z,8.5
2022-12-19T11:40:46.585Z,9.6
2022-12-19T11:50:02.923Z,10.7
2022-12-19T11:51:08.552Z,10.2
2022-12-19T11:56:17.053Z,10.2
2022-12-19T11:57:14.437Z,10
2022-12-19T11:58:15.090Z,10.2
2022-12-19T12:00:22.354Z,9.5
2022-12-19T12:06:47.701Z,9.3
2022-12-19T12:08:55.228Z,9.2
2022-12-19T12:44:08.594Z,8.8
2022-12-19T12:46:09.646Z,8.5
2022-12-19T12:50:20.420Z,10
2022-12-19T12:51:18.491Z,8.3
2022-12-19T12:52:29.846Z,8.8
2022-12-19T12:53:26.591Z,8.5
2022-12-19T12:54:31.000Z,8.7
2022-12-19T12:55:37.479Z,8.7
2022-12-19T12:56:31.310Z,8.4
2022-12-19T12:57:36.839Z,8.7
2022-12-19T12:59:35.924Z,8.5
2022-12-19T13:00:37.271Z,8.2
2022-12-19T13:01:39.563Z,9.6
2022-12-19T13:02:37.522Z,7.5
2022-12-19T13:03:40.460Z,8.9
2022-12-19T13:08:48.389Z,8
2022-12-19T13:09:52.902Z,8.3
2022-12-19T13:12:01.727Z,8.4
2022-12-19T13:13:56.829Z,8.7
2022-12-19T13:15:58.071Z,8.5
2022-12-19T13:16:58.430Z,8.3
2022-12-19T13:21:09.573Z,7.9
2022-12-19T13:24:16.232Z,7.9
2022-12-19T13:31:19.831Z,8.5
2022-12-19T13:31:35.979Z,8.9
2022-12-19T13:34:43.544Z,8.3
2022-12-19T13:39:46.990Z,9.3
2022-12-19T13:39:57.246Z,7.9
2022-12-19T13:41:03.052Z,7.8
2022-12-19T13:44:06.337Z,6.9
2022-12-19T13:47:21.967Z,7.7
2022-12-19T13:48:23.871Z,7
2022-12-19T13:50:34.529Z,7.5
2022-12-19T13:51:26.959Z,7
2022-12-19T13:52:27.173Z,7.5
2022-12-19T13:53:29.648Z,7.4
2022-12-19T13:54:37.622Z,7.1
2022-12-19T13:55:30.777Z,7.1
2022-12-19T13:56:31.088Z,7.2
2022-12-19T13:57:32.178Z,6.8
2022-12-19T13:58:37.047Z,6.9
2022-12-19T13:59:40.055Z,7.2
2022-12-19T14:00:42.681Z,7.2
2022-12-19T14:01:41.707Z,49.7
2022-12-19T14:02:51.484Z,17.8
2022-12-19T14:03:45.558Z,9
2022-12-19T14:04:45.690Z,7.6
2022-12-19T14:06:16.140Z,7.7
2022-12-19T14:06:47.867Z,7.8
2022-12-19T14:07:49.399Z,8.5
2022-12-19T14:09:58.588Z,8
2022-12-19T14:11:31.692Z,6.8
2022-12-19T14:11:40.202Z,9.6
2022-12-19T14:13:39.442Z,7.7
2022-12-19T14:13:59.285Z,7.5
2022-12-19T14:14:10.266Z,6.8
2022-12-19T14:16:15.418Z,7.2
2022-12-19T14:17:17.416Z,8.6
2022-12-19T14:18:43.249Z,7.6
2022-12-19T14:22:10.194Z,7.4
2022-12-19T14:22:26.360Z,6.8
2022-12-19T14:23:42.747Z,6.8
2022-12-19T14:24:26.363Z,6.6
2022-12-19T14:28:19.732Z,7
2022-12-19T14:30:38.646Z,7.1
2022-12-19T14:32:58.028Z,6.9
2022-12-19T14:33:44.123Z,8.6
2022-12-19T14:36:05.107Z,7.1
2022-12-19T14:36:08.841Z,6.5
2022-12-19T14:36:54.188Z,6.9
2022-12-19T14:39:25.721Z,6.8
2022-12-19T14:41:08.513Z,6.7
2022-12-19T14:52:11.487Z,7.2
2022-12-19T14:54:03.003Z,7.1
2022-12-19T14:54:29.541Z,7.6
2022-12-19T14:58:53.528Z,7.9
2022-12-19T14:58:55.187Z,7.4
2022-12-19T15:01:43.010Z,6.6
2022-12-19T15:02:43.318Z,6.5
2022-12-19T15:04:47.232Z,7.2
2022-12-19T15:07:10.391Z,8.8
2022-12-19T15:08:00.223Z,6.4
2022-12-19T15:10:57.592Z,6.8
2022-12-19T15:11:06.608Z,6.8
2022-12-19T15:11:16.986Z,9.2
2022-12-19T15:14:54.588Z,6.3
2022-12-19T15:17:25.480Z,6.8
2022-12-19T15:19:27.841Z,7
2022-12-19T15:20:28.253Z,6.9
2022-12-19T15:21:30.434Z,7
2022-12-19T15:22:28.986Z,6.7
2022-12-19T15:23:29.752Z,7
2022-12-19T15:24:29.932Z,7.5
2022-12-19T15:26:02.323Z,7
2022-12-19T15:27:33.633Z,7.2
2022-12-19T15:28:42.201Z,6.9
2022-12-19T15:29:34.875Z,7
2022-12-19T15:30:37.129Z,6.8
2022-12-19T15:31:43.494Z,6.8
2022-12-19T15:32:36.098Z,7.3
2022-12-19T15:33:38.443Z,8.2
2022-12-19T15:34:50.205Z,8.7
2022-12-19T15:35:43.202Z,6.9
2022-12-19T15:36:43.250Z,6.7
2022-12-19T15:37:44.880Z,7.1
2022-12-19T15:38:44.056Z,7.4
2022-12-19T15:39:45.514Z,7.5
2022-12-19T15:40:44.992Z,6.6
2022-12-19T15:41:48.979Z,6.7
2022-12-19T15:42:53.296Z,6.9
2022-12-19T15:44:03.706Z,7.6
2022-12-19T15:44:54.221Z,7.1
2022-12-19T15:45:58.783Z,9.5
2022-12-19T15:46:56.413Z,8.1
2022-12-19T15:47:56.804Z,7.1
2022-12-19T15:48:57.227Z,7.1
2022-12-19T15:49:57.522Z,7.1
2022-12-19T15:50:57.946Z,6.9
2022-12-19T15:51:58.122Z,7.5
2022-12-19T15:53:00.330Z,6.9
2022-12-19T15:54:15.649Z,7.3
2022-12-19T15:55:01.656Z,7.2
2022-12-19T15:56:02.595Z,7.5
2022-12-19T15:57:02.006Z,7.3
2022-12-19T15:58:06.280Z,7.2
2022-12-19T15:59:05.291Z,7
2022-12-19T16:00:07.971Z,7.2
2022-12-19T16:01:06.405Z,7.7
2022-12-19T16:03:27.724Z,7
2022-12-19T16:04:12.976Z,10.3
2022-12-19T16:05:11.614Z,10.1
2022-12-19T16:06:13.511Z,8.2
2022-12-19T16:08:19.135Z,7.8
2022-12-19T16:10:19.268Z,11.7
2022-12-19T16:11:22.864Z,10.8
2022-12-19T16:12:24.305Z,8.8
2022-12-19T16:13:25.343Z,8.1
2022-12-19T16:14:24.626Z,7.5
2022-12-19T16:16:29.078Z,7
2022-12-19T16:17:32.223Z,7.2
2022-12-19T16:18:29.559Z,7.1
2022-12-19T16:19:31.224Z,7
2022-12-19T16:20:36.653Z,8.9
2022-12-19T16:21:34.596Z,10.2
2022-12-19T16:22:34.472Z,8.5
2022-12-19T16:23:35.047Z,7.5
2022-12-19T16:24:35.350Z,8.1
2022-12-19T16:25:47.019Z,10.6
2022-12-19T16:26:40.168Z,10.6
2022-12-19T16:27:40.271Z,9.8
2022-12-19T16:28:40.383Z,7.2
2022-12-19T16:29:41.946Z,8.1
2022-12-19T16:30:41.106Z,7.7
2022-12-19T16:31:41.553Z,7
2022-12-19T16:32:41.743Z,6.6
2022-12-19T16:33:42.275Z,7.5
2022-12-19T16:34:42.371Z,9.2
2022-12-19T16:36:10.616Z,11.7
2022-12-19T16:36:45.557Z,10.2
2022-12-19T16:37:45.785Z,11.9
2022-12-19T16:38:46.180Z,9.5
2022-12-19T16:39:46.386Z,8.2
2022-12-19T16:40:48.219Z,10
2022-12-19T16:41:47.234Z,9.7
2022-12-19T16:42:48.767Z,13.5
2022-12-19T16:43:48.257Z,9.3
2022-12-19T16:44:48.399Z,11.9
2022-12-19T16:45:48.481Z,8.9
2022-12-19T16:46:51.375Z,12.7
2022-12-19T16:47:49.844Z,11.3
2022-12-19T16:48:50.342Z,8.6
2022-12-19T16:49:50.049Z,8.8
2022-12-19T16:50:50.874Z,9.2
2022-12-19T16:51:51.596Z,14.3
2022-12-19T16:52:54.775Z,14.9
2022-12-19T16:53:55.396Z,9.5
2022-12-19T16:54:52.840Z,10.9
2022-12-19T16:55:55.840Z,9.3
2022-12-19T16:56:54.166Z,11.5
2022-12-19T16:57:56.248Z,9.1
2022-12-19T16:58:56.474Z,9.5
2022-12-19T16:59:54.882Z,8.6
2022-12-19T17:00:56.061Z,8.8
2022-12-19T17:01:57.382Z,21.9
2022-12-19T17:02:59.574Z,8.6
2022-12-19T17:03:56.990Z,7.9
2022-12-19T17:04:57.416Z,7.8
2022-12-19T17:05:57.951Z,8.2
2022-12-19T17:06:58.231Z,10.2
2022-12-19T17:07:59.076Z,9
2022-12-19T17:08:58.969Z,8.3
2022-12-19T17:09:59.295Z,8.8
2022-12-19T17:10:59.850Z,7.7
2022-12-19T17:12:01.776Z,7.9
2022-12-19T17:13:02.483Z,9.9
2022-12-19T17:15:07.200Z,8.2
2022-12-19T17:16:05.314Z,8.3
2022-12-19T17:17:04.945Z,9
2022-12-19T17:20:18.922Z,8.1
2022-12-19T17:21:20.049Z,8.4
2022-12-19T17:22:16.569Z,8.1
2022-12-19T17:24:16.483Z,7.9
2022-12-19T17:26:19.285Z,8
2022-12-19T17:27:18.963Z,8.4
2022-12-19T17:28:19.376Z,7.8
2022-12-19T17:29:19.701Z,8.9
2022-12-19T17:30:20.638Z,7.9
2022-12-19T17:31:28.473Z,9.3
2022-12-19T17:32:24.195Z,8.5
2022-12-19T17:33:24.730Z,9.1
2022-12-19T17:34:28.076Z,8.8
2022-12-19T17:35:29.470Z,8.2
2022-12-19T17:36:36.564Z,8.2
2022-12-19T17:37:30.210Z,8
2022-12-19T17:38:30.421Z,7.7
2022-12-19T17:39:33.776Z,8.1
2022-12-19T17:40:33.687Z,8.3
2022-12-19T17:41:31.874Z,8.1
2022-12-19T17:42:37.012Z,8.4
2022-12-19T17:43:34.819Z,8.6
2022-12-19T17:44:35.356Z,7.7
2022-12-19T17:45:35.696Z,8.3
2022-12-19T17:46:36.924Z,7.7
2022-12-19T17:47:36.505Z,8
2022-12-19T17:48:36.815Z,8.8
2022-12-19T17:49:38.774Z,8
2022-12-19T17:50:41.442Z,8.4
2022-12-19T17:51:40.150Z,8.4
2022-12-19T17:52:40.316Z,7.7
2022-12-19T17:53:40.740Z,8.5
2022-12-19T17:54:41.262Z,8.4
2022-12-19T17:55:41.985Z,7.7
2022-12-19T17:56:41.886Z,8.1
2022-12-19T17:57:42.156Z,8.7
2022-12-19T17:58:42.718Z,8.2
2022-12-19T17:59:43.093Z,9.3
2022-12-19T18:00:44.740Z,7.8
2022-12-19T18:01:44.568Z,8.3
2022-12-19T18:02:46.149Z,8.3
2022-12-19T18:03:45.082Z,8.4
2022-12-19T18:04:45.010Z,8.4
2022-12-19T18:05:45.317Z,8.3
2022-12-19T18:06:46.268Z,8.2
2022-12-19T18:07:46.465Z,8.1
2022-12-19T18:08:46.275Z,8.7
2022-12-19T18:09:46.816Z,8.8
2022-12-19T18:10:47.091Z,8.1
2022-12-19T18:11:48.696Z,8.7
2022-12-19T18:12:48.211Z,8.4
2022-12-19T18:13:48.394Z,7.7
2022-12-19T18:14:48.558Z,8.3
2022-12-19T18:15:49.182Z,8.4
2022-12-19T18:16:50.602Z,8.9
2022-12-19T18:17:51.603Z,8.6
2022-12-19T18:18:50.108Z,9
2022-12-19T18:19:50.439Z,8.7
2022-12-19T18:20:50.764Z,8.7
2022-12-19T18:21:51.181Z,8.6
2022-12-19T18:22:51.585Z,9.2
2022-12-19T18:23:52.402Z,8.5
2022-12-19T18:24:52.423Z,8.4
2022-12-19T18:25:56.245Z,8.9
2022-12-19T18:26:53.446Z,8.3
2022-12-19T18:27:54.384Z,8.3
2022-12-19T18:28:54.180Z,9.2
2022-12-19T18:29:54.591Z,9.5
2022-12-19T18:31:00.809Z,8.8
2022-12-19T18:31:58.714Z,8.6
2022-12-19T18:33:00.577Z,9.6
2022-12-19T18:34:05.377Z,8.8
2022-12-19T18:34:59.825Z,8.9
2022-12-19T18:36:00.278Z,8.8
2022-12-19T18:37:00.892Z,8.8
2022-12-19T18:38:03.752Z,8.1
2022-12-19T18:39:01.611Z,8.6
2022-12-19T18:40:02.155Z,7.9
2022-12-19T18:41:02.647Z,8.9
2022-12-19T18:42:05.933Z,8.5
2022-12-19T18:43:03.595Z,9.2
2022-12-19T18:44:03.787Z,8.4
2022-12-19T18:45:04.762Z,8.4
2022-12-19T18:46:05.600Z,9.7
2022-12-19T18:47:05.066Z,9.7
2022-12-19T18:49:07.310Z,8.3